createdAt,value
2023-02-05T00:00:48.637Z,43.72
2023-02-05T00:01:50.541Z,43.73
2023-02-05T00:02:52.351Z,43.80
2023-02-05T00:03:54.200Z,43.86
2023-02-05T00:04:56.025Z,43.88
2023-02-05T00:05:57.829Z,43.95
2023-02-05T00:06:59.625Z,43.98
2023-02-05T00:08:01.425Z,44.03
2023-02-05T00:09:03.263Z,44.09
2023-02-05T00:10:05.202Z,44.07
2023-02-05T00:11:06.969Z,44.09
2023-02-05T00:12:08.781Z,44.08
2023-02-05T00:13:10.587Z,44.07
2023-02-05T00:14:12.424Z,44.06
2023-02-05T00:15:14.240Z,44.04
2023-02-05T00:16:17.229Z,44.08
2023-02-05T00:17:18.987Z,44.13
2023-02-05T00:18:20.799Z,44.18
2023-02-05T00:19:22.635Z,44.18
2023-02-05T00:20:24.445Z,44.21
2023-02-05T00:21:26.245Z,44.26
2023-02-05T00:22:28.053Z,44.29
2023-02-05T00:23:29.855Z,44.27
2023-02-05T00:24:31.689Z,44.24
2023-02-05T00:25:33.829Z,44.21
2023-02-05T00:26:35.788Z,44.19
2023-02-05T00:27:37.597Z,44.19
2023-02-05T00:28:39.393Z,44.23
2023-02-05T00:29:41.250Z,44.25
2023-02-05T00:30:43.389Z,44.20
2023-02-05T00:31:45.282Z,44.15
2023-02-05T00:32:47.173Z,44.15
2023-02-05T00:33:48.965Z,44.13
2023-02-05T00:34:50.818Z,44.10
2023-02-05T00:35:52.607Z,44.04
2023-02-05T00:36:54.513Z,44.02
2023-02-05T00:37:56.319Z,44.07
2023-02-05T00:38:58.119Z,44.14
2023-02-05T00:39:59.974Z,44.21
2023-02-05T00:41:01.782Z,44.19
2023-02-05T00:42:03.579Z,44.21
2023-02-05T00:43:06.480Z,44.26
2023-02-05T00:44:08.289Z,44.30
2023-02-05T00:45:10.147Z,44.32
2023-02-05T00:46:12.927Z,44.36
2023-02-05T00:47:14.650Z,44.39
2023-02-05T00:48:16.448Z,44.40
2023-02-05T00:49:18.262Z,44.42
2023-02-05T00:50:20.515Z,44.43
2023-02-05T00:51:22.304Z,44.46
2023-02-05T00:52:24.161Z,44.47
2023-02-05T00:53:26.017Z,44.43
2023-02-05T00:54:27.802Z,44.40
2023-02-05T00:55:29.652Z,44.39
2023-02-05T00:56:31.477Z,44.39
2023-02-05T00:57:33.288Z,44.43
2023-02-05T00:58:35.092Z,44.47
2023-02-05T00:59:36.885Z,44.48
2023-02-05T01:00:38.917Z,44.55
2023-02-05T01:01:40.767Z,44.50
2023-02-05T01:02:42.542Z,44.45
2023-02-05T01:03:44.354Z,44.43
2023-02-05T01:04:46.131Z,44.45
2023-02-05T01:05:47.975Z,44.48
2023-02-05T01:06:50.094Z,44.45
2023-02-05T01:07:51.875Z,44.46
2023-02-05T01:08:53.678Z,44.47
2023-02-05T01:09:55.477Z,44.52
2023-02-05T01:10:57.486Z,44.56
2023-02-05T01:11:59.279Z,44.57
2023-02-05T01:13:01.072Z,44.72
2023-02-05T01:14:02.878Z,44.63
2023-02-05T01:15:04.694Z,44.64
2023-02-05T01:16:06.839Z,44.63
2023-02-05T01:17:08.629Z,44.69
2023-02-05T01:18:10.434Z,44.69
2023-02-05T01:19:12.245Z,44.75
2023-02-05T01:20:14.843Z,44.75
2023-02-05T01:21:16.687Z,44.74
2023-02-05T01:22:18.464Z,44.74
2023-02-05T01:23:20.286Z,44.73
2023-02-05T01:24:22.065Z,44.71
2023-02-05T01:25:23.879Z,44.71
2023-02-05T01:26:25.817Z,44.70
2023-02-05T01:27:27.621Z,44.70
2023-02-05T01:28:29.421Z,44.72
2023-02-05T01:29:31.228Z,44.74
2023-02-05T01:30:33.356Z,44.74
2023-02-05T01:31:35.239Z,44.74
2023-02-05T01:32:37.071Z,44.71
2023-02-05T01:33:38.865Z,44.69
2023-02-05T01:34:40.660Z,44.65
2023-02-05T01:35:42.463Z,44.60
2023-02-05T01:36:44.296Z,44.57
2023-02-05T01:37:46.099Z,44.54
2023-02-05T01:38:47.901Z,44.54
2023-02-05T01:39:49.705Z,44.58
2023-02-05T01:40:51.495Z,44.59
2023-02-05T01:41:53.357Z,44.62
2023-02-05T01:42:55.155Z,44.61
2023-02-05T01:43:56.952Z,44.57
2023-02-05T01:44:58.751Z,44.59
2023-02-05T01:46:00.611Z,44.54
2023-02-05T01:47:02.497Z,44.52
2023-02-05T01:48:04.284Z,44.54
2023-02-05T01:49:06.077Z,44.53
2023-02-05T01:50:08.378Z,44.51
2023-02-05T01:51:10.178Z,44.50
2023-02-05T01:52:12.029Z,44.53
2023-02-05T01:53:13.836Z,44.59
2023-02-05T01:54:15.641Z,44.58
2023-02-05T01:55:17.436Z,44.54
2023-02-05T01:56:19.239Z,44.51
2023-02-05T01:57:21.081Z,44.48
2023-02-05T01:58:22.891Z,44.44
2023-02-05T01:59:24.685Z,44.45
2023-02-05T02:00:26.480Z,44.41
2023-02-05T02:01:28.337Z,44.35
2023-02-05T02:02:30.138Z,44.32
2023-02-05T02:03:31.933Z,44.33
2023-02-05T02:04:33.745Z,44.30
2023-02-05T02:05:35.776Z,44.29
2023-02-05T02:06:37.649Z,44.28
2023-02-05T02:07:39.497Z,44.29
2023-02-05T02:08:41.296Z,44.26
2023-02-05T02:09:43.102Z,44.30
2023-02-05T02:10:45.112Z,44.34
2023-02-05T02:11:46.912Z,44.38
2023-02-05T02:12:48.771Z,44.44
2023-02-05T02:13:50.553Z,44.45
2023-02-05T02:14:52.376Z,44.48
2023-02-05T02:15:54.184Z,44.49
2023-02-05T02:16:56.070Z,44.54
2023-02-05T02:17:57.909Z,44.57
2023-02-05T02:18:59.710Z,44.59
2023-02-05T02:20:01.516Z,44.60
2023-02-05T02:21:03.326Z,44.66
2023-02-05T02:22:05.110Z,44.62
2023-02-05T02:23:06.968Z,44.57
2023-02-05T02:24:08.771Z,44.56
2023-02-05T02:25:10.575Z,44.58
2023-02-05T02:26:12.383Z,44.57
2023-02-05T02:27:14.176Z,44.55
2023-02-05T02:28:16.046Z,44.49
2023-02-05T02:29:17.853Z,44.47
2023-02-05T02:30:19.799Z,44.40
2023-02-05T02:31:21.660Z,44.40
2023-02-05T02:32:23.435Z,44.44
2023-02-05T02:33:25.283Z,44.44
2023-02-05T02:34:27.086Z,44.40
2023-02-05T02:35:28.887Z,44.40
2023-02-05T02:36:30.800Z,44.40
2023-02-05T02:37:32.625Z,44.41
2023-02-05T02:38:34.440Z,44.43
2023-02-05T02:39:36.238Z,44.45
2023-02-05T02:40:38.138Z,44.46
2023-02-05T02:41:39.935Z,44.40
2023-02-05T02:42:41.742Z,44.40
2023-02-05T02:43:43.587Z,44.44
2023-02-05T02:44:45.386Z,44.50
2023-02-05T02:45:47.186Z,44.47
2023-02-05T02:46:49.123Z,44.41
2023-02-05T02:47:50.916Z,44.43
2023-02-05T02:48:52.752Z,44.42
2023-02-05T02:49:54.554Z,44.43
2023-02-05T02:50:56.347Z,44.41
2023-02-05T02:51:58.147Z,44.44
2023-02-05T02:52:59.948Z,44.45
2023-02-05T02:54:01.769Z,44.48
2023-02-05T02:55:03.565Z,44.46
2023-02-05T02:56:05.476Z,44.44
2023-02-05T02:57:07.279Z,44.43
2023-02-05T02:58:09.096Z,44.47
2023-02-05T02:59:10.933Z,44.51
2023-02-05T03:00:13.256Z,44.55
2023-02-05T03:01:15.713Z,44.60
2023-02-05T03:02:17.521Z,44.64
2023-02-05T03:03:19.312Z,44.64
2023-02-05T03:04:21.158Z,44.69
2023-02-05T03:05:22.958Z,44.71
2023-02-05T03:06:25.067Z,44.71
2023-02-05T03:07:27.965Z,44.75
2023-02-05T03:08:29.770Z,44.80
2023-02-05T03:09:31.616Z,44.81
2023-02-05T03:10:33.428Z,44.79
2023-02-05T03:11:35.217Z,44.72
2023-02-05T03:12:37.019Z,44.71
2023-02-05T03:13:39.102Z,44.73
2023-02-05T03:14:40.942Z,44.72
2023-02-05T03:15:42.745Z,44.71
2023-02-05T03:16:44.649Z,44.67
2023-02-05T03:17:46.467Z,44.66
2023-02-05T03:18:48.271Z,44.69
2023-02-05T03:19:50.112Z,44.70
2023-02-05T03:20:52.025Z,44.70
2023-02-05T03:21:53.854Z,44.69
2023-02-05T03:22:55.649Z,44.62
2023-02-05T03:23:57.447Z,44.55
2023-02-05T03:24:59.295Z,44.54
2023-02-05T03:26:01.087Z,44.54
2023-02-05T03:27:02.890Z,44.54
2023-02-05T03:28:04.748Z,44.52
2023-02-05T03:29:06.618Z,44.50
2023-02-05T03:30:08.547Z,44.50
2023-02-05T03:31:10.383Z,44.49
2023-02-05T03:32:12.160Z,44.50
2023-02-05T03:33:13.955Z,44.45
2023-02-05T03:34:15.759Z,44.43
2023-02-05T03:35:17.613Z,44.39
2023-02-05T03:36:19.519Z,44.37
2023-02-05T03:37:21.320Z,44.33
2023-02-05T03:38:23.114Z,44.32
2023-02-05T03:39:24.930Z,44.33
2023-02-05T03:40:27.001Z,44.30
2023-02-05T03:41:28.815Z,44.35
2023-02-05T03:42:30.619Z,44.35
2023-02-05T03:43:32.429Z,44.34
2023-02-05T03:44:34.237Z,44.39
2023-02-05T03:45:36.352Z,44.37
2023-02-05T03:46:38.692Z,44.38
2023-02-05T03:47:40.497Z,44.37
2023-02-05T03:48:42.295Z,44.43
2023-02-05T03:49:44.106Z,44.46
2023-02-05T03:50:45.939Z,44.49
2023-02-05T03:51:47.746Z,44.47
2023-02-05T03:52:50.129Z,44.51
2023-02-05T03:53:51.948Z,44.52
2023-02-05T03:54:53.745Z,44.55
2023-02-05T03:55:55.598Z,44.57
2023-02-05T03:56:57.404Z,44.58
2023-02-05T03:57:59.204Z,44.56
2023-02-05T03:59:01.003Z,44.58
2023-02-05T04:00:02.872Z,44.59
2023-02-05T04:01:04.695Z,44.59
2023-02-05T04:02:06.501Z,44.54
2023-02-05T04:03:08.288Z,44.51
2023-02-05T04:04:10.090Z,44.49
2023-02-05T04:05:12.437Z,44.51
2023-02-05T04:06:14.977Z,44.51
2023-02-05T04:07:16.786Z,44.53
2023-02-05T04:08:18.597Z,44.53
2023-02-05T04:09:20.388Z,44.53
2023-02-05T04:10:22.331Z,44.57
2023-02-05T04:11:24.134Z,44.60
2023-02-05T04:12:25.933Z,44.61
2023-02-05T04:13:27.732Z,44.60
2023-02-05T04:14:29.543Z,44.58
2023-02-05T04:15:31.555Z,44.62
2023-02-05T04:16:33.726Z,44.71
2023-02-05T04:17:35.503Z,44.77
2023-02-05T04:18:37.293Z,44.77
2023-02-05T04:19:39.107Z,44.77
2023-02-05T04:20:40.998Z,44.80
2023-02-05T04:21:42.851Z,44.79
2023-02-05T04:22:44.651Z,44.82
2023-02-05T04:23:46.497Z,44.84
2023-02-05T04:24:48.257Z,44.92
2023-02-05T04:25:50.048Z,44.98
2023-02-05T04:26:52.002Z,45.04
2023-02-05T04:27:53.825Z,45.05
2023-02-05T04:28:55.614Z,45.11
2023-02-05T04:29:57.428Z,45.10
2023-02-05T04:30:59.296Z,45.08
2023-02-05T04:32:01.073Z,45.08
2023-02-05T04:33:02.903Z,45.05
2023-02-05T04:34:04.691Z,45.02
2023-02-05T04:35:06.504Z,45.00
2023-02-05T04:36:08.806Z,44.97
2023-02-05T04:37:10.655Z,44.94
2023-02-05T04:38:12.461Z,44.97
2023-02-05T04:39:14.257Z,44.94
2023-02-05T04:40:17.862Z,44.92
2023-02-05T04:41:19.660Z,44.93
2023-02-05T04:42:21.514Z,44.98
2023-02-05T04:43:23.320Z,45.04
2023-02-05T04:44:25.138Z,45.07
2023-02-05T04:45:26.940Z,45.09
2023-02-05T04:46:29.047Z,45.09
2023-02-05T04:47:30.894Z,45.08
2023-02-05T04:48:32.736Z,45.08
2023-02-05T04:49:34.490Z,45.09
2023-02-05T04:50:36.500Z,45.09
2023-02-05T04:51:38.319Z,45.11
2023-02-05T04:52:40.164Z,45.09
2023-02-05T04:53:41.980Z,45.08
2023-02-05T04:54:43.764Z,45.09
2023-02-05T04:55:45.572Z,45.07
2023-02-05T04:56:47.499Z,45.04
2023-02-05T04:57:51.268Z,45.00
2023-02-05T04:58:52.953Z,44.97
2023-02-05T04:59:55.335Z,44.95
2023-02-05T05:00:57.234Z,44.95
2023-02-05T05:02:00.138Z,44.99
2023-02-05T05:03:01.994Z,44.98
2023-02-05T05:04:03.807Z,44.99
2023-02-05T05:05:05.595Z,45.02
2023-02-05T05:06:07.502Z,45.05
2023-02-05T05:07:09.299Z,45.07
2023-02-05T05:08:11.147Z,45.06
2023-02-05T05:09:12.964Z,45.08
2023-02-05T05:10:15.361Z,45.11
2023-02-05T05:11:17.152Z,45.14
2023-02-05T05:12:18.968Z,45.16
2023-02-05T05:13:21.104Z,45.14
2023-02-05T05:14:22.902Z,45.19
2023-02-05T05:15:24.704Z,45.21
2023-02-05T05:16:26.513Z,45.22
2023-02-05T05:17:28.317Z,45.22
2023-02-05T05:18:30.151Z,45.25
2023-02-05T05:19:31.939Z,45.24
2023-02-05T05:20:33.751Z,45.24
2023-02-05T05:21:35.540Z,45.30
2023-02-05T05:22:37.352Z,45.31
2023-02-05T05:23:39.205Z,45.35
2023-02-05T05:24:40.995Z,45.34
2023-02-05T05:25:42.800Z,45.35
2023-02-05T05:26:44.593Z,45.34
2023-02-05T05:27:46.411Z,45.34
2023-02-05T05:28:48.242Z,45.40
2023-02-05T05:29:50.045Z,45.46
2023-02-05T05:30:52.896Z,45.48
2023-02-05T05:31:54.724Z,45.47
2023-02-05T05:32:56.511Z,45.52
2023-02-05T05:33:58.352Z,45.58
2023-02-05T05:35:00.150Z,45.60
2023-02-05T05:36:02.053Z,45.65
2023-02-05T05:37:03.846Z,45.65
2023-02-05T05:38:05.649Z,45.64
2023-02-05T05:39:07.472Z,45.64
2023-02-05T05:40:09.478Z,45.64
2023-02-05T05:41:11.271Z,45.71
2023-02-05T05:42:13.087Z,45.74
2023-02-05T05:43:15.305Z,45.77
2023-02-05T05:44:17.160Z,45.79
2023-02-05T05:45:19.061Z,45.79
2023-02-05T05:46:20.953Z,45.78
2023-02-05T05:47:22.741Z,45.79
2023-02-05T05:48:24.550Z,45.82
2023-02-05T05:49:26.403Z,45.83
2023-02-05T05:50:28.289Z,45.84
2023-02-05T05:51:30.102Z,45.86
2023-02-05T05:52:32.804Z,45.84
2023-02-05T05:53:34.726Z,45.86
2023-02-05T05:54:36.580Z,45.86
2023-02-05T05:55:38.372Z,45.87
2023-02-05T05:56:40.174Z,45.87
2023-02-05T05:57:41.964Z,45.87
2023-02-05T05:58:43.805Z,45.87
2023-02-05T05:59:45.609Z,45.89
2023-02-05T06:00:47.741Z,45.89
2023-02-05T06:01:49.558Z,45.91
2023-02-05T06:02:51.470Z,45.92
2023-02-05T06:03:53.270Z,45.98
2023-02-05T06:04:55.218Z,46.00
2023-02-05T06:05:57.019Z,46.02
2023-02-05T06:06:58.808Z,46.04
2023-02-05T06:08:00.606Z,46.05
2023-02-05T06:09:02.397Z,46.04
2023-02-05T06:10:04.351Z,46.06
2023-02-05T06:11:06.163Z,46.07
2023-02-05T06:12:08.222Z,46.21
2023-02-05T06:13:10.757Z,46.30
2023-02-05T06:14:12.622Z,46.32
2023-02-05T06:15:14.624Z,46.49
2023-02-05T06:16:16.994Z,46.59
2023-02-05T06:17:18.990Z,46.62
2023-02-05T06:18:23.397Z,46.63
2023-02-05T06:19:24.886Z,46.58
2023-02-05T06:20:27.000Z,46.52
2023-02-05T06:21:28.990Z,46.51
2023-02-05T06:22:30.864Z,46.53
2023-02-05T06:23:32.825Z,46.62
2023-02-05T06:24:34.633Z,46.63
2023-02-05T06:25:36.658Z,46.59
2023-02-05T06:26:38.609Z,46.56
2023-02-05T06:27:40.407Z,46.53
2023-02-05T06:28:42.213Z,46.50
2023-02-05T06:29:44.001Z,46.46
2023-02-05T06:30:45.878Z,46.46
2023-02-05T06:31:47.751Z,46.47
2023-02-05T06:32:49.575Z,46.48
2023-02-05T06:33:51.383Z,46.45
2023-02-05T06:34:53.181Z,46.47
2023-02-05T06:35:55.020Z,46.50
2023-02-05T06:36:56.825Z,46.45
2023-02-05T06:37:58.622Z,46.49
2023-02-05T06:39:00.532Z,46.52
2023-02-05T06:40:02.315Z,46.55
2023-02-05T06:41:04.165Z,46.62
2023-02-05T06:42:05.976Z,46.60
2023-02-05T06:43:07.776Z,46.57
2023-02-05T06:44:09.625Z,46.53
2023-02-05T06:45:11.437Z,46.52
2023-02-05T06:46:13.800Z,46.53
2023-02-05T06:47:15.593Z,46.56
2023-02-05T06:48:17.398Z,46.54
2023-02-05T06:49:19.198Z,46.45
2023-02-05T06:50:21.096Z,46.48
2023-02-05T06:51:22.953Z,46.52
2023-02-05T06:52:24.757Z,46.53
2023-02-05T06:53:26.545Z,46.55
2023-02-05T06:54:28.348Z,46.51
2023-02-05T06:55:30.145Z,46.35
2023-02-05T06:56:32.793Z,46.32
2023-02-05T06:57:34.608Z,46.38
2023-02-05T06:58:36.393Z,46.40
2023-02-05T06:59:38.192Z,46.33
2023-02-05T07:00:39.997Z,46.24
2023-02-05T07:01:41.897Z,46.24
2023-02-05T07:02:43.793Z,46.27
2023-02-05T07:03:45.555Z,46.30
2023-02-05T07:04:47.479Z,46.30
2023-02-05T07:05:49.275Z,46.27
2023-02-05T07:06:51.220Z,46.13
2023-02-05T07:07:53.014Z,45.97
2023-02-05T07:08:54.826Z,45.90
2023-02-05T07:09:56.619Z,45.88
2023-02-05T07:10:58.629Z,45.87
2023-02-05T07:12:00.473Z,45.93
2023-02-05T07:13:03.965Z,45.88
2023-02-05T07:14:05.901Z,45.87
2023-02-05T07:15:07.700Z,45.74
2023-02-05T07:16:09.846Z,45.64
2023-02-05T07:17:11.662Z,45.69
2023-02-05T07:18:13.544Z,45.68
2023-02-05T07:19:15.308Z,45.69
2023-02-05T07:20:17.520Z,45.46
2023-02-05T07:21:19.325Z,45.33
2023-02-05T07:22:21.173Z,45.14
2023-02-05T07:23:23.009Z,45.01
2023-02-05T07:24:24.799Z,44.97
2023-02-05T07:25:26.610Z,44.89
2023-02-05T07:26:28.728Z,44.76
2023-02-05T07:27:30.671Z,44.80
2023-02-05T07:28:32.480Z,44.76
2023-02-05T07:29:34.276Z,44.64
2023-02-05T07:30:36.357Z,44.41
2023-02-05T07:31:38.318Z,44.32
2023-02-05T07:32:40.263Z,44.33
2023-02-05T07:33:42.119Z,44.34
2023-02-05T07:34:43.962Z,44.32
2023-02-05T07:35:45.724Z,44.20
2023-02-05T07:36:48.578Z,44.07
2023-02-05T07:37:50.521Z,44.02
2023-02-05T07:38:52.313Z,43.82
2023-02-05T07:39:54.128Z,43.87
2023-02-05T07:40:55.925Z,43.75
2023-02-05T07:41:57.728Z,43.86
2023-02-05T07:42:59.579Z,43.93
2023-02-05T07:44:01.399Z,43.90
2023-02-05T07:45:03.171Z,43.87
2023-02-05T07:46:05.094Z,43.82
2023-02-05T07:47:06.896Z,43.75
2023-02-05T07:48:08.744Z,43.66
2023-02-05T07:49:10.556Z,43.51
2023-02-05T07:50:12.558Z,43.56
2023-02-05T07:51:14.360Z,43.45
2023-02-05T07:52:16.262Z,43.39
2023-02-05T07:53:18.109Z,43.26
2023-02-05T07:54:19.904Z,43.24
2023-02-05T07:55:21.712Z,43.22
2023-02-05T07:56:23.540Z,43.38
2023-02-05T07:57:25.334Z,43.52
2023-02-05T07:58:27.177Z,43.51
2023-02-05T07:59:29.008Z,43.20
2023-02-05T08:00:31.923Z,43.23
2023-02-05T08:01:33.824Z,43.19
2023-02-05T08:02:35.601Z,43.19
2023-02-05T08:03:37.947Z,43.16
2023-02-05T08:04:39.787Z,43.20
2023-02-05T08:05:41.911Z,43.20
2023-02-05T08:06:43.828Z,43.23
2023-02-05T08:07:45.634Z,43.04
2023-02-05T08:08:47.501Z,42.84
2023-02-05T08:09:49.326Z,42.97
2023-02-05T08:10:51.505Z,43.10
2023-02-05T08:11:53.348Z,43.08
2023-02-05T08:12:55.144Z,43.00
2023-02-05T08:13:56.978Z,42.97
2023-02-05T08:14:58.873Z,42.90
2023-02-05T08:16:00.726Z,42.87
2023-02-05T08:17:02.517Z,42.74
2023-02-05T08:18:04.372Z,42.66
2023-02-05T08:19:06.849Z,42.62
2023-02-05T08:20:10.589Z,42.44
2023-02-05T08:21:12.407Z,42.37
2023-02-05T08:22:14.207Z,42.41
2023-02-05T08:23:16.038Z,42.58
2023-02-05T08:24:18.184Z,42.67
2023-02-05T08:25:19.994Z,42.73
2023-02-05T08:26:21.904Z,42.60
2023-02-05T08:27:24.746Z,42.69
2023-02-05T08:28:26.567Z,42.78
2023-02-05T08:29:28.402Z,42.83
2023-02-05T08:30:30.552Z,42.80
2023-02-05T08:31:32.323Z,42.73
2023-02-05T08:32:34.106Z,42.68
2023-02-05T08:33:35.911Z,42.62
2023-02-05T08:34:37.758Z,42.56
2023-02-05T08:35:39.583Z,42.49
2023-02-05T08:36:41.474Z,42.45
2023-02-05T08:37:43.700Z,42.32
2023-02-05T08:38:45.508Z,42.15
2023-02-05T08:39:47.360Z,42.12
2023-02-05T08:40:49.164Z,42.30
2023-02-05T08:41:50.987Z,42.29
2023-02-05T08:42:52.809Z,42.29
2023-02-05T08:43:54.573Z,42.34
2023-02-05T08:44:56.469Z,42.34
2023-02-05T08:45:58.320Z,42.31
2023-02-05T08:47:00.098Z,42.37
2023-02-05T08:48:01.931Z,42.42
2023-02-05T08:49:03.711Z,42.39
2023-02-05T08:50:05.673Z,42.31
2023-02-05T08:51:08.225Z,42.32
2023-02-05T08:52:10.051Z,42.35
2023-02-05T08:53:11.865Z,42.36
2023-02-05T08:54:13.674Z,42.37
2023-02-05T08:55:15.655Z,42.26
2023-02-05T08:56:19.959Z,42.02
2023-02-05T08:57:21.430Z,42.02
2023-02-05T08:58:23.239Z,42.07
2023-02-05T08:59:25.048Z,42.04
2023-02-05T09:00:26.891Z,42.00
2023-02-05T09:01:28.769Z,41.99
2023-02-05T09:02:32.235Z,41.93
2023-02-05T09:03:35.461Z,41.90
2023-02-05T09:04:37.306Z,41.87
2023-02-05T09:05:39.132Z,41.87
2023-02-05T09:06:41.030Z,41.87
2023-02-05T09:07:42.829Z,41.84
2023-02-05T09:08:44.660Z,41.95
2023-02-05T09:09:46.537Z,41.93
2023-02-05T09:10:48.537Z,42.03
2023-02-05T09:11:50.359Z,42.09
2023-02-05T09:12:52.360Z,42.02
2023-02-05T09:13:54.253Z,41.89
2023-02-05T09:14:56.013Z,41.81
2023-02-05T09:15:57.866Z,41.73
2023-02-05T09:16:59.918Z,41.70
2023-02-05T09:18:01.728Z,41.67
2023-02-05T09:19:03.527Z,41.70
2023-02-05T09:20:05.341Z,41.75
2023-02-05T09:21:07.184Z,41.73
2023-02-05T09:22:08.983Z,41.72
2023-02-05T09:23:10.780Z,41.69
2023-02-05T09:24:12.574Z,41.62
2023-02-05T09:25:14.399Z,41.56
2023-02-05T09:26:17.572Z,41.42
2023-02-05T09:27:19.382Z,41.44
2023-02-05T09:28:21.212Z,41.49
2023-02-05T09:29:23.027Z,41.53
2023-02-05T09:30:24.969Z,41.60
2023-02-05T09:31:26.850Z,41.55
2023-02-05T09:32:28.687Z,41.47
2023-02-05T09:33:30.503Z,41.56
2023-02-05T09:34:32.294Z,41.61
2023-02-05T09:35:34.287Z,41.66
2023-02-05T09:36:36.357Z,41.67
2023-02-05T09:37:38.144Z,41.69
2023-02-05T09:38:39.936Z,41.72
2023-02-05T09:40:18.919Z,41.65
2023-02-05T09:40:45.558Z,41.48
2023-02-05T09:41:47.402Z,41.32
2023-02-05T09:42:49.225Z,41.27
2023-02-05T09:43:51.005Z,41.19
2023-02-05T09:44:52.826Z,41.15
2023-02-05T09:45:54.652Z,41.19
2023-02-05T09:46:56.573Z,41.08
2023-02-05T09:47:58.358Z,41.03
2023-02-05T09:49:00.197Z,41.02
2023-02-05T09:50:02.257Z,41.06
2023-02-05T09:51:04.130Z,41.01
2023-02-05T09:52:06.050Z,40.97
2023-02-05T09:53:07.870Z,40.89
2023-02-05T09:54:09.956Z,40.89
2023-02-05T09:55:12.329Z,40.84
2023-02-05T09:56:14.540Z,40.94
2023-02-05T09:57:16.873Z,40.98
2023-02-05T09:58:18.840Z,40.94
2023-02-05T09:59:20.646Z,40.79
2023-02-05T10:00:22.453Z,40.70
2023-02-05T10:01:24.316Z,40.66
2023-02-05T10:02:26.115Z,40.59
2023-02-05T10:03:27.929Z,40.60
2023-02-05T10:04:29.795Z,40.58
2023-02-05T10:05:31.828Z,40.29
2023-02-05T10:06:33.830Z,40.27
2023-02-05T10:07:35.681Z,40.37
2023-02-05T10:08:37.476Z,40.46
2023-02-05T10:09:39.302Z,40.50
2023-02-05T10:10:41.115Z,40.17
2023-02-05T10:11:42.925Z,40.03
2023-02-05T10:12:44.779Z,39.97
2023-02-05T10:13:46.575Z,40.43
2023-02-05T10:14:49.338Z,40.43
2023-02-05T10:15:51.352Z,40.27
2023-02-05T10:16:53.457Z,40.27
2023-02-05T10:17:55.296Z,40.19
2023-02-05T10:18:57.090Z,40.24
2023-02-05T10:19:58.896Z,40.30
2023-02-05T10:21:01.010Z,40.56
2023-02-05T10:22:02.918Z,40.62
2023-02-05T10:23:04.888Z,40.42
2023-02-05T10:24:06.748Z,40.44
2023-02-05T10:25:08.575Z,40.49
2023-02-05T10:26:11.221Z,40.56
2023-02-05T10:27:13.008Z,40.67
2023-02-05T10:28:15.011Z,40.65
2023-02-05T10:29:16.853Z,40.83
2023-02-05T10:30:19.157Z,40.80
2023-02-05T10:31:21.125Z,40.97
2023-02-05T10:32:22.918Z,40.91
2023-02-05T10:33:24.742Z,40.86
2023-02-05T10:34:26.578Z,40.73
2023-02-05T10:35:28.384Z,40.78
2023-02-05T10:36:30.202Z,40.77
2023-02-05T10:37:32.013Z,40.65
2023-02-05T10:38:33.878Z,40.70
2023-02-05T10:39:35.698Z,40.63
2023-02-05T10:40:37.508Z,40.59
2023-02-05T10:41:39.447Z,40.64
2023-02-05T10:42:41.401Z,40.45
2023-02-05T10:43:43.301Z,40.50
2023-02-05T10:44:45.134Z,40.49
2023-02-05T10:45:46.995Z,40.37
2023-02-05T10:46:48.948Z,40.11
2023-02-05T10:47:50.773Z,40.03
2023-02-05T10:48:52.728Z,40.08
2023-02-05T10:49:56.004Z,40.08
2023-02-05T10:50:58.023Z,39.96
2023-02-05T10:51:59.896Z,40.07
2023-02-05T10:53:01.769Z,40.25
2023-02-05T10:54:03.785Z,40.32
2023-02-05T10:55:05.658Z,40.31
2023-02-05T10:56:07.924Z,40.40
2023-02-05T10:57:09.783Z,40.47
2023-02-05T10:58:11.787Z,40.35
2023-02-05T10:59:13.712Z,40.31
2023-02-05T11:00:16.363Z,40.31
2023-02-05T11:01:18.321Z,40.28
2023-02-05T11:02:20.234Z,39.99
2023-02-05T11:03:22.292Z,39.85
2023-02-05T11:04:24.553Z,39.82
2023-02-05T11:05:26.449Z,39.87
2023-02-05T11:06:28.557Z,39.89
2023-02-05T11:07:30.465Z,39.85
2023-02-05T11:08:32.334Z,39.93
2023-02-05T11:09:34.297Z,39.99
2023-02-05T11:10:36.702Z,40.00
2023-02-05T11:11:39.037Z,40.03
2023-02-05T11:12:40.885Z,39.97
2023-02-05T11:13:42.725Z,39.93
2023-02-05T11:14:44.990Z,39.96
2023-02-05T11:15:47.105Z,39.98
2023-02-05T11:16:51.115Z,40.11
2023-02-05T11:17:53.701Z,40.20
2023-02-05T11:18:58.639Z,40.37
2023-02-05T11:20:03.671Z,40.40
2023-02-05T11:21:05.389Z,40.35
2023-02-05T11:22:07.269Z,40.48
2023-02-05T11:23:09.133Z,40.58
2023-02-05T11:24:10.982Z,40.78
2023-02-05T11:25:12.891Z,41.06
2023-02-05T11:26:15.402Z,41.25
2023-02-05T11:27:17.314Z,41.34
2023-02-05T11:28:19.270Z,41.44
2023-02-05T11:29:21.242Z,41.35
2023-02-05T11:30:42.113Z,41.35
2023-02-05T11:31:27.416Z,41.31
2023-02-05T11:32:29.572Z,41.41
2023-02-05T11:33:31.601Z,41.39
2023-02-05T11:34:33.554Z,41.58
2023-02-05T11:35:35.592Z,41.77
2023-02-05T11:36:37.583Z,41.62
2023-02-05T11:37:39.514Z,41.55
2023-02-05T11:38:41.380Z,41.46
2023-02-05T11:39:43.297Z,41.35
2023-02-05T11:40:45.864Z,41.53
2023-02-05T11:41:47.819Z,41.40
2023-02-05T11:42:49.742Z,41.12
2023-02-05T11:43:53.429Z,41.11
2023-02-05T11:44:55.268Z,41.00
2023-02-05T11:45:57.195Z,41.02
2023-02-05T11:46:59.110Z,41.10
2023-02-05T11:48:00.992Z,41.12
2023-02-05T11:49:02.859Z,41.18
2023-02-05T11:50:05.081Z,41.27
2023-02-05T11:51:08.049Z,41.16
2023-02-05T11:52:10.268Z,41.26
2023-02-05T11:53:12.515Z,41.34
2023-02-05T11:54:16.004Z,41.46
2023-02-05T11:55:18.707Z,41.59
2023-02-05T11:56:24.245Z,41.66
2023-02-05T11:57:26.541Z,41.67
2023-02-05T11:58:36.565Z,41.71
2023-02-05T11:59:32.349Z,41.75
2023-02-05T12:00:34.690Z,41.73
2023-02-05T12:01:36.807Z,41.74
2023-02-05T12:02:38.940Z,41.73
2023-02-05T12:03:40.902Z,41.60
2023-02-05T12:04:42.770Z,41.59
2023-02-05T12:05:44.653Z,41.67
2023-02-05T12:06:46.625Z,41.71
2023-02-05T12:07:48.900Z,41.61
2023-02-05T12:08:51.281Z,41.56
2023-02-05T12:09:53.309Z,41.62
2023-02-05T12:10:55.286Z,41.81
2023-02-05T12:11:57.245Z,41.88
2023-02-05T12:13:00.162Z,41.96
2023-02-05T12:14:02.138Z,42.02
2023-02-05T12:15:04.004Z,41.84
2023-02-05T12:16:05.967Z,41.78
2023-02-05T12:17:07.997Z,41.68
2023-02-05T12:18:09.912Z,41.75
2023-02-05T12:19:11.738Z,41.94
2023-02-05T12:20:14.602Z,41.97
2023-02-05T12:21:16.482Z,42.00
2023-02-05T12:22:18.343Z,41.76
2023-02-05T12:23:20.304Z,41.75
2023-02-05T12:24:22.153Z,41.77
2023-02-05T12:25:24.954Z,41.78
2023-02-05T12:26:27.123Z,41.77
2023-02-05T12:27:29.007Z,41.78
2023-02-05T12:28:30.886Z,41.78
2023-02-05T12:29:32.705Z,41.85
2023-02-05T12:30:34.724Z,41.83
2023-02-05T12:31:36.560Z,41.82
2023-02-05T12:32:38.412Z,41.90
2023-02-05T12:33:40.278Z,41.92
2023-02-05T12:34:42.068Z,41.88
2023-02-05T12:35:43.905Z,42.00
2023-02-05T12:36:45.724Z,42.09
2023-02-05T12:37:47.642Z,42.14
2023-02-05T12:38:49.540Z,42.26
2023-02-05T12:39:51.399Z,42.28
2023-02-05T12:40:53.252Z,42.28
2023-02-05T12:41:55.151Z,42.31
2023-02-05T12:42:56.988Z,42.38
2023-02-05T12:43:58.923Z,42.43
2023-02-05T12:45:00.695Z,42.45
2023-02-05T12:46:02.520Z,42.59
2023-02-05T12:47:04.326Z,42.60
2023-02-05T12:48:06.192Z,42.61
2023-02-05T12:49:07.991Z,42.52
2023-02-05T12:50:12.102Z,42.65
2023-02-05T12:51:13.908Z,42.73
2023-02-05T12:52:15.931Z,42.95
2023-02-05T12:53:17.780Z,42.95
2023-02-05T12:54:19.611Z,42.93
2023-02-05T12:55:22.798Z,42.90
2023-02-05T12:56:24.621Z,42.88
2023-02-05T12:57:26.499Z,42.82
2023-02-05T12:58:28.478Z,42.73
2023-02-05T12:59:30.292Z,42.66
2023-02-05T13:00:32.433Z,42.61
2023-02-05T13:01:34.361Z,42.44
2023-02-05T13:02:36.175Z,42.52
2023-02-05T13:03:38.060Z,42.61
2023-02-05T13:04:39.871Z,42.40
2023-02-05T13:05:42.355Z,42.37
2023-02-05T13:06:44.357Z,42.49
2023-02-05T13:07:46.170Z,42.46
2023-02-05T13:08:48.102Z,42.50
2023-02-05T13:09:49.900Z,42.42
2023-02-05T13:10:51.723Z,42.51
2023-02-05T13:11:53.566Z,42.62
2023-02-05T13:12:55.509Z,42.62
2023-02-05T13:13:57.368Z,42.77
2023-02-05T13:14:59.246Z,42.88
2023-02-05T13:16:01.045Z,42.80
2023-02-05T13:17:02.851Z,42.83
2023-02-05T13:18:05.785Z,42.81